Time;durP1;ratioP1;P1;durP2;ratioP2;P2;SDS_P1;SDS_P2;PMS_P1;PMS_P2;Temp;Humidity;BMP_temperature;BMP_pressure;BME280_temperature;BME280_humidity;BME280_pressure;Samples;Min_cycle;Max_cycle;Signal;HPM_P1;HPM_P2
2022/01/22 00:01:39;;;;;;;10.93;3.13;;;5.90;99.90;;;;;;5036361;28;20025;-60
2022/01/22 00:04:05;;;;;;;7.25;2.88;;;5.90;99.90;;;;;;5056100;28;20013;-60
2022/01/22 00:06:30;;;;;;;8.02;2.80;;;5.90;99.90;;;;;;5056526;28;20052;-60
2022/01/22 00:08:56;;;;;;;7.43;2.50;;;5.90;99.90;;;;;;5034273;28;20362;-60
2022/01/22 00:11:21;;;;;;;7.35;2.70;;;5.90;99.90;;;;;;5043362;28;20167;-60
2022/01/22 00:16:31;;;;;;;12.40;3.03;;;5.90;99.90;;;;;;5053713;28;20449;-60
2022/01/22 00:18:56;;;;;;;6.60;2.40;;;5.90;99.90;;;;;;5060334;28;20124;-60
2022/01/22 00:21:22;;;;;;;7.68;2.72;;;5.90;99.90;;;;;;5037186;28;20029;-60
2022/01/22 00:23:55;;;;;;;7.05;2.53;;;5.90;99.90;;;;;;5058844;28;20016;-61
2022/01/22 00:26:21;;;;;;;6.28;2.33;;;5.90;99.90;;;;;;5046346;28;20069;-60
2022/01/22 00:28:47;;;;;;;8.00;1.77;;;5.90;99.90;;;;;;5037801;28;20052;-60
2022/01/22 00:31:13;;;;;;;9.40;2.55;;;5.90;99.90;;;;;;5063557;28;20060;-60
2022/01/22 00:33:38;;;;;;;10.77;2.60;;;5.90;99.90;;;;;;5050432;28;20052;-60
2022/01/22 00:36:04;;;;;;;4.85;1.90;;;5.90;99.90;;;;;;5039857;28;20415;-60
2022/01/22 00:38:29;;;;;;;12.93;2.75;;;5.90;99.90;;;;;;5055098;28;20028;-60
2022/01/22 00:40:55;;;;;;;6.70;2.13;;;5.90;99.90;;;;;;5038487;28;20518;-60
2022/01/22 00:43:21;;;;;;;3.90;2.40;;;6.00;99.90;;;;;;5040104;28;20495;-60
2022/01/22 00:45:47;;;;;;;7.88;2.70;;;6.00;99.90;;;;;;5042483;28;20036;-60
2022/01/22 00:48:12;;;;;;;4.55;2.10;;;6.00;99.90;;;;;;5044048;28;20041;-61
2022/01/22 00:50:38;;;;;;;8.15;2.40;;;6.00;99.90;;;;;;5054420;28;20029;-60
2022/01/22 00:53:04;;;;;;;8.88;2.20;;;6.00;99.90;;;;;;5057530;28;20469;-60
2022/01/22 00:55:30;;;;;;;9.20;2.58;;;6.00;99.90;;;;;;5052227;28;20071;-60
2022/01/22 00:57:55;;;;;;;10.23;2.63;;;5.90;99.90;;;;;;5054923;28;20024;-61
2022/01/22 01:00:21;;;;;;;5.90;2.92;;;6.00;99.90;;;;;;5054968;28;20025;-60
2022/01/22 01:02:47;;;;;;;6.93;2.63;;;6.00;99.90;;;;;;5049082;28;20033;-60
2022/01/22 01:05:13;;;;;;;6.05;2.90;;;6.00;99.90;;;;;;5054838;28;20024;-60
2022/01/22 01:07:40;;;;;;;8.63;3.00;;;6.00;99.90;;;;;;5053820;28;20074;-60
2022/01/22 01:10:07;;;;;;;8.27;3.15;;;5.90;99.90;;;;;;5044885;28;20075;-60
2022/01/22 01:12:34;;;;;;;9.25;2.90;;;6.00;99.90;;;;;;5057241;28;20044;-60
2022/01/22 01:15:14;;;;;;;7.57;3.17;;;6.00;99.90;;;;;;5057489;28;20021;-60
2022/01/22 01:32:11;;;;;;;13.57;5.20;;;5.90;99.90;;;;;;5059034;28;20567;-60
2022/01/22 01:33:59;;;;;;;9.23;4.32;;;5.90;99.90;;;;;;5051549;28;20024;-60
2022/01/22 01:36:25;;;;;;;8.77;4.22;;;5.90;99.90;;;;;;5056845;28;20029;-60
2022/01/22 01:38:55;;;;;;;11.20;4.95;;;5.90;99.90;;;;;;5041638;28;20013;-60
2022/01/22 01:41:33;;;;;;;11.18;5.45;;;5.90;99.90;;;;;;5054310;28;20381;-60
2022/01/22 01:43:59;;;;;;;15.05;5.13;;;5.90;99.90;;;;;;5041971;28;20469;-60
2022/01/22 01:46:28;;;;;;;8.93;5.32;;;6.00;99.90;;;;;;5051503;28;20040;-60
2022/01/22 01:48:54;;;;;;;14.45;6.55;;;6.00;99.90;;;;;;5051180;28;20024;-60
2022/01/22 01:51:22;;;;;;;12.68;5.88;;;5.90;99.90;;;;;;5038891;28;20115;-60
2022/01/22 01:53:56;;;;;;;12.80;6.00;;;6.00;99.90;;;;;;5035926;28;20473;-60
2022/01/22 01:59:09;;;;;;;11.25;6.60;;;6.00;99.90;;;;;;5056902;28;20083;-60
2022/01/22 02:01:34;;;;;;;15.75;8.15;;;6.00;99.90;;;;;;5036515;28;20392;-60
2022/01/22 02:04:00;;;;;;;13.27;7.32;;;6.00;99.90;;;;;;5040900;28;20021;-60
2022/01/22 02:06:25;;;;;;;16.60;7.30;;;6.00;99.90;;;;;;5063559;28;20055;-60
2022/01/22 02:08:53;;;;;;;14.60;7.10;;;6.00;99.90;;;;;;5055990;28;20469;-60
2022/01/22 02:11:21;;;;;;;11.45;7.10;;;6.00;99.90;;;;;;5047444;28;20024;-60
2022/01/22 02:14:02;;;;;;;13.77;6.40;;;6.00;99.90;;;;;;5060655;28;20853;-60
2022/01/22 02:24:56;;;;;;;14.90;7.65;;;6.00;99.90;;;;;;5053691;28;20039;-60
2022/01/22 02:27:22;;;;;;;10.27;6.60;;;6.00;99.90;;;;;;5058347;28;20045;-60
2022/01/22 02:29:48;;;;;;;10.32;6.50;;;6.00;99.90;;;;;;5055611;28;20099;-61
2022/01/22 02:35:22;;;;;;;13.55;7.32;;;6.00;99.90;;;;;;5057668;28;20075;-60
2022/01/22 02:37:51;;;;;;;13.15;6.90;;;6.00;99.90;;;;;;5061691;28;20516;-60
2022/01/22 02:40:43;;;;;;;10.82;6.70;;;6.00;99.90;;;;;;5062312;28;20392;-60
2022/01/22 02:43:02;;;;;;;13.27;6.15;;;6.00;99.90;;;;;;5054190;28;20039;-60
2022/01/22 02:45:28;;;;;;;15.55;6.45;;;6.00;99.90;;;;;;5062792;28;20021;-60
2022/01/22 02:47:54;;;;;;;14.52;6.97;;;6.00;99.90;;;;;;5052875;28;20151;-60
2022/01/22 02:50:20;;;;;;;11.50;6.70;;;6.00;99.90;;;;;;5064977;28;20029;-60
2022/01/22 02:52:46;;;;;;;12.13;7.03;;;6.00;99.90;;;;;;5051451;28;20447;-61
2022/01/22 02:55:14;;;;;;;7.70;5.93;;;6.00;99.90;;;;;;5057353;28;20024;-60
2022/01/22 02:57:42;;;;;;;14.55;6.22;;;6.10;99.90;;;;;;5043462;28;20029;-60
2022/01/22 03:00:11;;;;;;;12.25;6.22;;;6.00;99.90;;;;;;5033983;28;20025;-60
2022/01/22 03:02:38;;;;;;;13.87;6.50;;;6.10;99.90;;;;;;5055801;28;20472;-60
2022/01/22 03:05:06;;;;;;;14.82;7.15;;;6.10;99.90;;;;;;5055265;28;20017;-60
2022/01/22 03:07:31;;;;;;;11.10;7.35;;;6.10;99.90;;;;;;5036140;28;20097;-60
2022/01/22 03:10:01;;;;;;;11.52;7.00;;;6.10;99.90;;;;;;5055753;28;20052;-60
2022/01/22 03:17:50;;;;;;;14.35;7.22;;;6.00;99.90;;;;;;5062804;28;20028;-60
2022/01/22 03:27:59;;;;;;;17.30;6.93;;;6.00;99.90;;;;;;5055477;28;20416;-60
2022/01/22 03:30:25;;;;;;;14.20;7.32;;;6.00;99.90;;;;;;5039800;28;20025;-60
2022/01/22 03:32:53;;;;;;;15.18;6.68;;;6.10;99.90;;;;;;5059552;28;20029;-60
2022/01/22 03:37:51;;;;;;;17.30;8.00;;;6.10;99.90;;;;;;5056869;28;20078;-59
2022/01/22 03:40:18;;;;;;;13.10;6.63;;;6.10;99.90;;;;;;5053704;28;20082;-61
2022/01/22 03:42:44;;;;;;;15.43;6.88;;;6.10;99.90;;;;;;5053185;28;20028;-60
2022/01/22 03:45:11;;;;;;;17.90;7.43;;;6.10;99.90;;;;;;5065273;28;20473;-60
2022/01/22 03:47:37;;;;;;;14.02;7.13;;;6.10;99.90;;;;;;5047882;28;20029;-60
2022/01/22 03:50:04;;;;;;;14.68;6.78;;;6.10;99.90;;;;;;5060234;28;20408;-60
2022/01/22 03:52:30;;;;;;;10.38;6.57;;;6.10;99.90;;;;;;5037060;28;20497;-60
2022/01/22 03:54:56;;;;;;;14.82;7.07;;;6.10;99.90;;;;;;5043760;28;20025;-60
2022/01/22 03:57:25;;;;;;;16.50;7.43;;;6.10;99.90;;;;;;5056431;28;20032;-60
2022/01/22 03:59:53;;;;;;;11.50;6.45;;;6.20;99.90;;;;;;5038158;28;20032;-60
2022/01/22 04:04:49;;;;;;;13.77;6.50;;;6.20;99.90;;;;;;5056164;28;20028;-60
2022/01/22 04:09:46;;;;;;;10.48;5.70;;;6.20;99.90;;;;;;5058394;28;20400;-60
2022/01/22 04:12:17;;;;;;;16.77;6.38;;;6.20;99.90;;;;;;5052929;28;20029;-60
2022/01/22 04:14:51;;;;;;;12.93;6.97;;;6.20;99.90;;;;;;5052822;28;20104;-60
2022/01/22 04:17:35;;;;;;;10.45;6.15;;;6.20;99.90;;;;;;5054316;28;20029;-60
2022/01/22 04:25:34;;;;;;;10.35;4.95;;;6.20;99.90;;;;;;5051960;28;20102;-60
2022/01/22 04:27:59;;;;;;;11.80;6.10;;;6.20;99.90;;;;;;5055356;28;20037;-60
2022/01/22 04:30:27;;;;;;;13.57;6.97;;;6.20;99.90;;;;;;5034126;28;20035;-60
2022/01/22 04:33:04;;;;;;;12.07;5.97;;;6.30;99.90;;;;;;5048263;28;20451;-60
2022/01/22 04:35:30;;;;;;;9.93;6.43;;;6.30;99.90;;;;;;5055203;28;20044;-60
2022/01/22 04:37:56;;;;;;;14.23;5.70;;;6.30;99.90;;;;;;5039605;28;20017;-60
2022/01/22 04:40:22;;;;;;;11.48;5.95;;;6.30;99.90;;;;;;5049730;28;20052;-60
2022/01/22 04:42:48;;;;;;;9.63;5.65;;;6.30;99.90;;;;;;5052499;28;20021;-60
2022/01/22 04:45:24;;;;;;;15.60;5.95;;;6.30;99.90;;;;;;5059136;28;20508;-60
2022/01/22 04:47:58;;;;;;;10.20;5.38;;;6.30;99.90;;;;;;5058098;28;20087;-60
2022/01/22 04:55:34;;;;;;;8.85;4.90;;;6.30;99.90;;;;;;5057785;28;20064;-60
2022/01/22 04:58:03;;;;;;;7.50;4.60;;;6.30;99.90;;;;;;5055027;28;20035;-60
2022/01/22 05:00:31;;;;;;;8.85;4.65;;;6.30;99.90;;;;;;5055003;28;20029;-60
2022/01/22 05:03:01;;;;;;;10.70;4.53;;;6.30;99.90;;;;;;5059711;28;20016;-61
2022/01/22 05:05:27;;;;;;;;;;;6.40;99.90;;;;;;5052644;28;20028;-60
2022/01/22 05:07:53;;;;;;;9.65;4.60;;;6.30;99.90;;;;;;5051957;28;19909;-60
2022/01/22 05:10:19;;;;;;;13.23;5.10;;;6.30;99.90;;;;;;5055139;28;20033;-60
2022/01/22 05:12:45;;;;;;;13.82;4.85;;;6.30;99.90;;;;;;5039273;28;20028;-61
2022/01/22 05:15:12;;;;;;;12.30;4.82;;;6.30;99.90;;;;;;5039354;28;20564;-60
2022/01/22 05:17:40;;;;;;;9.15;4.10;;;6.30;99.90;;;;;;5056857;28;20024;-60
2022/01/22 05:20:18;;;;;;;7.13;3.70;;;6.40;99.90;;;;;;5051692;28;20468;-60
2022/01/22 05:22:58;;;;;;;7.32;3.92;;;6.40;99.90;;;;;;5039344;28;20033;-60
2022/01/22 05:25:36;;;;;;;6.85;3.97;;;6.40;99.90;;;;;;5051582;28;20102;-60
2022/01/22 05:38:34;;;;;;;12.18;6.90;;;6.40;99.90;;;;;;5048874;28;20063;-60
2022/01/22 05:41:00;;;;;;;11.55;7.55;;;6.30;99.90;;;;;;5051595;28;20465;-60
2022/01/22 05:43:26;;;;;;;13.02;6.93;;;6.30;99.90;;;;;;5054421;28;20103;-61
2022/01/22 05:45:52;;;;;;;12.60;7.55;;;6.30;99.90;;;;;;5033867;28;20021;-60
2022/01/22 05:48:19;;;;;;;12.68;8.57;;;6.30;99.90;;;;;;5041109;28;20489;-60
2022/01/22 05:50:55;;;;;;;16.08;9.45;;;6.40;99.90;;;;;;5033275;28;20042;-60
2022/01/22 06:01:13;;;;;;;14.75;10.68;;;6.40;99.90;;;;;;5030154;28;20040;-60
2022/01/22 06:03:39;;;;;;;18.30;11.82;;;6.40;99.90;;;;;;5056198;28;20032;-60
2022/01/22 06:06:05;;;;;;;19.75;11.90;;;6.30;99.90;;;;;;5038264;28;20388;-60
2022/01/22 06:08:34;;;;;;;20.85;12.07;;;6.30;99.90;;;;;;5044003;28;20033;-60
2022/01/22 06:11:07;;;;;;;20.08;13.05;;;6.30;99.90;;;;;;5036067;28;20112;-61
2022/01/22 06:13:46;;;;;;;16.63;12.88;;;6.30;99.90;;;;;;5051079;28;20013;-60
2022/01/22 06:16:25;;;;;;;19.80;11.65;;;6.30;99.90;;;;;;5041757;28;20074;-60
2022/01/22 06:18:51;;;;;;;20.15;12.18;;;6.30;99.90;;;;;;5044630;28;20025;-60
2022/01/22 06:21:16;;;;;;;17.42;12.80;;;6.30;99.90;;;;;;5048420;28;20032;-60
2022/01/22 06:23:45;;;;;;;22.13;12.23;;;6.30;99.90;;;;;;5056470;28;20568;-60
2022/01/22 06:26:11;;;;;;;21.35;12.30;;;6.30;99.90;;;;;;5056492;28;20024;-60
2022/01/22 06:28:37;;;;;;;20.70;13.25;;;6.30;99.90;;;;;;5034125;28;20037;-60
2022/01/22 06:31:03;;;;;;;22.35;13.10;;;6.30;99.90;;;;;;5052660;28;20036;-60
2022/01/22 06:33:29;;;;;;;16.88;12.02;;;6.30;99.90;;;;;;5038521;28;20032;-60
2022/01/22 06:35:55;;;;;;;18.25;11.20;;;6.30;99.90;;;;;;5054139;28;20147;-60
2022/01/22 06:38:20;;;;;;;19.52;12.80;;;6.30;99.90;;;;;;5061047;28;20488;-60
2022/01/22 06:43:31;;;;;;;17.75;12.52;;;6.40;99.90;;;;;;5054260;28;20070;-60
2022/01/22 06:45:57;;;;;;;23.67;13.05;;;6.40;99.90;;;;;;5051615;28;20022;-60
2022/01/22 06:48:23;;;;;;;21.48;12.27;;;6.40;99.90;;;;;;5052541;28;20037;-60
2022/01/22 06:50:49;;;;;;;17.95;10.73;;;6.40;99.90;;;;;;5037990;28;20032;-60
2022/01/22 06:53:15;;;;;;;19.52;9.98;;;6.40;99.90;;;;;;5057678;28;20028;-60
2022/01/22 06:55:55;;;;;;;15.32;9.52;;;6.40;99.90;;;;;;5075581;28;20020;-60
2022/01/22 06:58:21;;;;;;;15.73;8.50;;;6.40;99.90;;;;;;5067344;28;20029;-60
2022/01/22 07:00:46;;;;;;;13.80;7.68;;;6.40;99.90;;;;;;5055728;28;20025;-60
2022/01/22 07:03:13;;;;;;;15.00;7.93;;;6.40;99.90;;;;;;5037814;28;20032;-60
2022/01/22 07:05:38;;;;;;;15.65;7.50;;;6.40;99.90;;;;;;5046193;28;20115;-60
2022/01/22 07:08:20;;;;;;;11.88;6.13;;;6.40;99.90;;;;;;5069594;28;20416;-60
2022/01/22 07:10:46;;;;;;;10.10;6.03;;;6.50;99.90;;;;;;5052740;28;20429;-60
2022/01/22 07:13:11;;;;;;;12.13;5.97;;;6.40;99.90;;;;;;5074277;28;20025;-60
2022/01/22 07:15:37;;;;;;;12.75;5.05;;;6.50;99.90;;;;;;5065694;28;20540;-60
2022/01/22 07:18:08;;;;;;;9.73;5.43;;;6.40;99.90;;;;;;5075306;28;20033;-60
2022/01/22 07:20:38;;;;;;;13.50;4.93;;;6.50;99.90;;;;;;5055963;28;20080;-60
2022/01/22 07:23:15;;;;;;;9.13;4.57;;;6.50;99.90;;;;;;5056868;28;20503;-60
2022/01/22 07:25:42;;;;;;;13.02;5.38;;;6.50;99.90;;;;;;5057060;28;20025;-60
2022/01/22 07:28:08;;;;;;;9.52;4.05;;;6.50;99.90;;;;;;5074640;28;20045;-60
2022/01/22 07:30:41;;;;;;;7.25;3.70;;;6.50;99.90;;;;;;5055228;28;20037;-60
2022/01/22 07:33:21;;;;;;;6.20;3.35;;;6.50;99.90;;;;;;5074486;28;20028;-60
2022/01/22 07:36:02;;;;;;;;;;;;;;;;;;;;;
2022/01/22 07:38:28;;;;;;;9.85;3.78;;;6.50;99.90;;;;;;5074922;28;19904;-60
2022/01/22 07:40:53;;;;;;;7.75;3.05;;;6.50;99.90;;;;;;5074613;28;20115;-60
2022/01/22 07:43:19;;;;;;;9.38;2.85;;;6.50;99.90;;;;;;5056152;28;20017;-60
2022/01/22 07:45:45;;;;;;;5.75;2.78;;;6.60;99.90;;;;;;5073288;28;20030;-60
2022/01/22 07:48:10;;;;;;;9.23;2.83;;;6.60;99.90;;;;;;5049173;28;20473;-60
2022/01/22 07:50:36;;;;;;;7.38;3.10;;;6.60;99.90;;;;;;5061594;28;20035;-60
2022/01/22 07:53:41;;;;;;;;;;;;;;;;;;;;;
2022/01/22 07:59:03;;;;;;;4.80;2.45;;;6.60;99.90;;;;;;5065699;28;20032;-60
2022/01/22 08:01:29;;;;;;;8.55;2.90;;;6.60;99.90;;;;;;5073440;28;20078;-59
2022/01/22 08:03:54;;;;;;;7.50;3.13;;;6.70;99.90;;;;;;5074335;28;20469;-60
2022/01/22 08:06:20;;;;;;;6.00;2.13;;;6.70;99.90;;;;;;5066077;28;20029;-60
2022/01/22 08:08:45;;;;;;;9.70;2.63;;;6.70;99.90;;;;;;5036533;28;20021;-60
2022/01/22 08:11:11;;;;;;;7.97;2.78;;;6.70;99.90;;;;;;5056357;28;20506;-60
2022/01/22 08:13:36;;;;;;;6.68;2.42;;;6.70;99.90;;;;;;5074335;28;20054;-59
2022/01/22 08:16:02;;;;;;;8.57;2.38;;;6.80;99.90;;;;;;5074251;28;20024;-60
2022/01/22 08:18:27;;;;;;;6.00;2.40;;;6.80;99.90;;;;;;5072942;28;20020;-60
2022/01/22 08:20:53;;;;;;;4.45;1.90;;;6.80;99.90;;;;;;5055265;28;20021;-60
2022/01/22 08:23:20;;;;;;;6.38;2.22;;;6.80;99.90;;;;;;5073302;28;20360;-60
2022/01/22 08:25:47;;;;;;;5.32;2.10;;;6.80;99.90;;;;;;5055763;28;20027;-60
2022/01/22 08:28:53;;;;;;;8.77;2.20;;;6.80;99.90;;;;;;5055670;28;20404;-60
2022/01/22 08:36:46;;;;;;;5.68;1.90;;;6.90;99.90;;;;;;5073494;28;20076;-59
2022/01/22 08:39:15;;;;;;;6.22;3.30;;;6.90;99.90;;;;;;5070066;28;20024;-59
2022/01/22 08:41:41;;;;;;;5.40;1.33;;;6.90;99.90;;;;;;5066863;28;20027;-59
2022/01/22 08:44:07;;;;;;;4.90;2.15;;;6.90;99.90;;;;;;5071383;28;20020;-59
2022/01/22 08:46:34;;;;;;;8.93;2.00;;;7.00;99.90;;;;;;5067215;28;20081;-59
2022/01/22 08:49:00;;;;;;;6.38;1.80;;;7.00;99.90;;;;;;5053461;28;20078;-59
2022/01/22 08:51:26;;;;;;;4.68;1.77;;;7.00;99.90;;;;;;5035566;28;20021;-59
2022/01/22 08:53:51;;;;;;;5.85;1.80;;;7.00;99.90;;;;;;5071732;28;20017;-59
2022/01/22 08:56:18;;;;;;;7.85;1.88;;;7.00;99.90;;;;;;5073437;28;20170;-60
2022/01/22 08:58:44;;;;;;;7.32;1.85;;;7.10;99.90;;;;;;5073291;28;20029;-59
2022/01/22 09:01:11;;;;;;;7.53;1.90;;;7.10;99.90;;;;;;5055444;28;20024;-59
2022/01/22 09:03:36;;;;;;;5.30;1.95;;;7.10;99.90;;;;;;5055051;28;20043;-59
2022/01/22 09:06:04;;;;;;;6.18;1.70;;;7.20;99.90;;;;;;5073231;28;20029;-60
2022/01/22 09:08:30;;;;;;;6.75;1.75;;;7.10;99.90;;;;;;5073073;28;20077;-59
2022/01/22 09:10:55;;;;;;;3.90;1.50;;;7.10;99.90;;;;;;5072322;28;20041;-59
2022/01/22 09:13:23;;;;;;;6.05;1.50;;;7.20;99.90;;;;;;5072352;28;20028;-59
2022/01/22 09:15:50;;;;;;;5.80;1.60;;;7.20;99.90;;;;;;5055138;28;20052;-59
2022/01/22 09:18:15;;;;;;;5.60;1.40;;;7.20;99.90;;;;;;5055121;28;20452;-59
2022/01/22 09:23:09;;;;;;;4.50;1.27;;;7.30;99.90;;;;;;5071546;28;20016;-59
2022/01/22 09:25:36;;;;;;;4.32;1.63;;;7.30;99.90;;;;;;5071685;28;20058;-59
2022/01/22 09:28:02;;;;;;;4.68;1.30;;;7.40;99.90;;;;;;5071521;28;20048;-59
2022/01/22 09:30:28;;;;;;;6.10;2.13;;;7.40;99.90;;;;;;5069278;28;20016;-59
2022/01/22 09:32:53;;;;;;;7.47;1.63;;;7.40;99.90;;;;;;5070493;28;20568;-59
2022/01/22 09:35:19;;;;;;;3.33;1.20;;;7.40;99.90;;;;;;5067598;28;20036;-59
2022/01/22 09:37:46;;;;;;;4.63;1.40;;;7.50;99.90;;;;;;5070932;28;20161;-59
2022/01/22 09:40:15;;;;;;;6.25;1.38;;;7.40;99.90;;;;;;5071701;28;20484;-59
2022/01/22 09:42:41;;;;;;;5.45;1.65;;;7.50;99.90;;;;;;5071518;28;20061;-59
2022/01/22 09:45:08;;;;;;;6.07;1.77;;;7.50;99.90;;;;;;5068581;28;20021;-59
2022/01/22 09:47:35;;;;;;;4.10;1.30;;;7.50;99.90;;;;;;5071581;28;20020;-60
2022/01/22 09:50:01;;;;;;;6.05;1.92;;;7.50;99.90;;;;;;5071565;28;20028;-59
2022/01/22 09:52:57;;;;;;;5.57;1.55;;;7.50;99.90;;;;;;5053247;28;20024;-59
2022/01/22 09:55:35;;;;;;;5.50;1.92;;;7.50;99.90;;;;;;5070324;28;20035;-60
2022/01/22 09:58:00;;;;;;;5.25;2.17;;;7.50;99.90;;;;;;5049811;28;20388;-59
2022/01/22 10:00:29;;;;;;;7.60;2.38;;;7.50;99.90;;;;;;5067040;28;20020;-60
2022/01/22 10:02:56;;;;;;;6.40;2.45;;;7.50;99.90;;;;;;5068691;28;20024;-59
2022/01/22 10:05:34;;;;;;;7.15;2.85;;;7.50;99.90;;;;;;5070388;28;20388;-59
2022/01/22 10:08:19;;;;;;;8.90;2.95;;;7.50;99.90;;;;;;5069299;28;20024;-59
2022/01/22 10:10:46;;;;;;;7.63;3.72;;;7.60;99.90;;;;;;5066577;28;20082;-59
2022/01/22 10:13:11;;;;;;;7.97;3.60;;;7.50;99.90;;;;;;5068598;28;20027;-59
2022/01/22 10:15:39;;;;;;;9.85;4.30;;;7.60;99.90;;;;;;5067183;28;20025;-59
2022/01/22 10:18:20;;;;;;;8.57;4.80;;;7.60;99.90;;;;;;5053764;28;20116;-59
2022/01/22 10:20:45;;;;;;;9.90;4.63;;;7.60;99.90;;;;;;5054502;28;20067;-59
2022/01/22 10:23:38;;;;;;;11.23;4.88;;;7.60;99.90;;;;;;5054753;28;20503;-59
2022/01/22 10:26:04;;;;;;;8.18;4.35;;;7.70;99.90;;;;;;5072487;28;20027;-59
2022/01/22 10:28:47;;;;;;;7.45;4.25;;;7.60;99.90;;;;;;5069215;28;20063;-60
2022/01/22 10:31:23;;;;;;;7.47;4.03;;;7.60;99.90;;;;;;5054284;28;20387;-60
2022/01/22 10:34:29;;;;;;;7.50;3.28;;;7.60;99.90;;;;;;5074270;28;20024;-59
2022/01/22 10:36:59;;;;;;;6.40;2.72;;;7.60;99.90;;;;;;5052199;28;20036;-59
2022/01/22 10:39:26;;;;;;;6.03;2.58;;;7.60;99.90;;;;;;5056077;28;20108;-59
2022/01/22 10:41:52;;;;;;;4.68;2.60;;;7.60;99.90;;;;;;5055211;28;20021;-59
2022/01/22 10:44:36;;;;;;;11.30;3.28;;;7.60;99.90;;;;;;5066482;28;20032;-59
2022/01/22 10:47:03;;;;;;;9.63;2.10;;;7.60;99.90;;;;;;5051727;28;20373;-59
2022/01/22 10:49:44;;;;;;;3.03;1.45;;;7.60;99.90;;;;;;5054869;28;20054;-59
2022/01/22 10:52:11;;;;;;;8.45;1.95;;;7.70;99.90;;;;;;5075487;28;20538;-59
2022/01/22 10:54:38;;;;;;;3.92;1.45;;;7.60;99.90;;;;;;5075286;28;20024;-59
2022/01/22 10:57:28;;;;;;;5.88;3.28;;;7.60;99.90;;;;;;5057342;28;20442;-59
2022/01/22 10:59:55;;;;;;;4.18;1.98;;;7.70;99.90;;;;;;5055612;28;20031;-59
2022/01/22 11:02:33;;;;;;;5.57;2.20;;;7.70;99.90;;;;;;5037668;28;20051;-59
2022/01/22 11:04:58;;;;;;;6.07;2.50;;;7.80;99.90;;;;;;5056549;28;20035;-59
2022/01/22 11:07:24;;;;;;;5.85;2.42;;;7.70;99.90;;;;;;5057195;28;20387;-59
2022/01/22 11:09:50;;;;;;;6.65;3.38;;;7.80;99.90;;;;;;5067820;28;20024;-59
2022/01/22 11:12:16;;;;;;;8.18;3.58;;;7.80;99.90;;;;;;5057353;28;20037;-59
2022/01/22 11:14:43;;;;;;;7.32;3.20;;;7.80;99.90;;;;;;5074912;28;20028;-60
2022/01/22 11:17:09;;;;;;;6.22;3.30;;;7.80;99.90;;;;;;5074194;28;20029;-59
2022/01/22 11:19:38;;;;;;;6.95;4.10;;;7.80;99.90;;;;;;5068217;28;20503;-60
2022/01/22 11:22:05;;;;;;;10.20;3.95;;;7.80;99.90;;;;;;5069280;28;20032;-60
2022/01/22 11:24:36;;;;;;;7.70;3.10;;;7.80;99.90;;;;;;5064193;28;20024;-60
2022/01/22 11:27:03;;;;;;;6.45;2.55;;;7.80;99.90;;;;;;5069050;28;20023;-60
2022/01/22 11:29:37;;;;;;;5.63;2.03;;;7.80;99.90;;;;;;5057125;28;20087;-60
2022/01/22 11:32:08;;;;;;;6.13;2.90;;;7.80;99.90;;;;;;5056877;28;20404;-60
2022/01/22 11:34:36;;;;;;;6.15;1.92;;;7.80;99.90;;;;;;5056517;28;20190;-60
2022/01/22 11:37:12;;;;;;;4.07;1.52;;;7.80;99.90;;;;;;5044297;28;20033;-60
2022/01/22 11:39:37;;;;;;;4.53;2.00;;;7.90;99.90;;;;;;5042770;28;20032;-60
2022/01/22 11:42:04;;;;;;;5.20;2.28;;;7.90;99.90;;;;;;5025766;28;20033;-60
2022/01/22 11:44:32;;;;;;;6.75;1.90;;;7.90;99.90;;;;;;5061473;28;20016;-60
2022/01/22 11:47:30;;;;;;;7.03;1.95;;;7.90;99.90;;;;;;5072576;28;20108;-60
2022/01/22 11:50:06;;;;;;;7.90;2.00;;;7.90;99.90;;;;;;5070193;28;20052;-60
2022/01/22 11:52:35;;;;;;;7.78;2.47;;;7.90;99.90;;;;;;5047750;28;20086;-60
2022/01/22 11:55:07;;;;;;;7.30;2.22;;;7.80;99.90;;;;;;5073178;28;20017;-60
2022/01/22 11:57:34;;;;;;;7.35;3.15;;;7.90;99.90;;;;;;5072203;28;20063;-60
2022/01/22 12:00:28;;;;;;;5.65;2.78;;;7.80;99.90;;;;;;5040930;28;20103;-60
2022/01/22 12:03:03;;;;;;;9.70;2.72;;;7.90;99.90;;;;;;5071870;28;20020;-60
2022/01/22 12:05:29;;;;;;;6.65;2.70;;;7.80;99.90;;;;;;5071358;28;20115;-60
2022/01/22 12:07:59;;;;;;;8.00;2.53;;;7.80;99.90;;;;;;5070365;28;20075;-60
2022/01/22 12:10:39;;;;;;;;;;;7.90;99.90;;;;;;5070582;28;20078;-60
2022/01/22 12:16:12;;;;;;;4.95;3.08;;;7.80;99.90;;;;;;5072244;28;20047;-60
2022/01/22 12:18:45;;;;;;;6.50;3.60;;;7.80;99.90;;;;;;5069927;28;20077;-60
2022/01/22 12:22:21;;;;;;;;;;;;;;;;;;;;;
2022/01/22 12:28:13;;;;;;;8.02;3.28;;;7.90;99.90;;;;;;5001331;28;20064;-60
2022/01/22 12:30:43;;;;;;;5.45;2.95;;;7.90;99.90;;;;;;5052198;28;20024;-60
2022/01/22 12:33:12;;;;;;;;;;;7.90;99.90;;;;;;5054414;28;20404;-60
2022/01/22 12:35:46;;;;;;;4.80;3.08;;;7.90;99.90;;;;;;5054880;28;19912;-60
2022/01/22 12:38:36;;;;;;;6.97;3.00;;;7.90;99.90;;;;;;5072245;28;20484;-60
2022/01/22 12:44:19;;;;;;;4.80;2.60;;;8.00;99.90;;;;;;4986750;28;20018;-60
2022/01/22 12:46:45;;;;;;;4.87;2.90;;;8.00;99.90;;;;;;5019641;28;20041;-60
2022/01/22 12:49:14;;;;;;;10.20;4.13;;;7.90;99.90;;;;;;5054010;28;20070;-60
2022/01/22 12:51:40;;;;;;;7.18;3.85;;;8.00;99.90;;;;;;5069885;28;20024;-60
2022/01/22 12:54:05;;;;;;;10.63;3.53;;;8.00;99.90;;;;;;5054236;28;20070;-60
2022/01/22 12:59:08;;;;;;;7.13;3.75;;;8.00;99.90;;;;;;5069421;28;20024;-60
2022/01/22 13:01:43;;;;;;;6.68;3.40;;;8.00;99.90;;;;;;5053070;28;20025;-60
2022/01/22 13:04:09;;;;;;;10.27;3.58;;;8.00;99.90;;;;;;5050866;28;20346;-60
2022/01/22 13:06:41;;;;;;;7.07;3.58;;;8.00;99.90;;;;;;5048693;28;20040;-60
2022/01/22 13:09:08;;;;;;;5.10;3.08;;;8.10;99.90;;;;;;5070349;28;20008;-60
2022/01/22 13:11:34;;;;;;;7.55;3.80;;;8.00;99.90;;;;;;5068672;28;20044;-60
2022/01/22 13:14:00;;;;;;;5.88;2.67;;;8.10;99.90;;;;;;5071554;28;20052;-60
2022/01/22 13:16:26;;;;;;;6.35;3.08;;;8.00;99.90;;;;;;5054652;28;20020;-61
2022/01/22 13:18:58;;;;;;;7.47;2.97;;;8.10;99.90;;;;;;5054477;28;20054;-60
2022/01/22 13:21:58;;;;;;;11.57;4.07;;;8.10;99.90;;;;;;5072147;28;20533;-60
2022/01/22 13:24:25;;;;;;;;;;;8.10;99.90;;;;;;5055062;28;20059;-60
2022/01/22 13:29:38;;;;;;;5.53;3.53;;;8.00;99.90;;;;;;5071635;28;20048;-60
2022/01/22 13:32:09;;;;;;;7.60;3.60;;;8.00;99.90;;;;;;5071538;28;20103;-60
2022/01/22 13:37:56;;;;;;;8.23;3.83;;;8.10;99.90;;;;;;5071600;28;20492;-60
2022/01/22 13:49:08;;;;;;;8.32;3.38;;;8.00;99.90;;;;;;5070650;28;20055;-60
2022/01/22 13:51:49;;;;;;;6.50;3.35;;;8.10;99.90;;;;;;5070339;28;20056;-60
2022/01/22 13:57:37;;;;;;;7.90;3.60;;;8.10;99.90;;;;;;5070889;28;20021;-59
2022/01/22 14:00:15;;;;;;;7.07;3.95;;;8.10;99.90;;;;;;5070458;28;20048;-60
2022/01/22 14:03:03;;;;;;;10.35;4.30;;;8.10;99.90;;;;;;5064894;28;20230;-59
2022/01/22 14:05:31;;;;;;;11.52;4.63;;;8.10;99.90;;;;;;5068078;28;20020;-60
2022/01/22 14:08:03;;;;;;;6.28;3.67;;;8.10;99.90;;;;;;5068460;28;20012;-60
2022/01/22 14:10:29;;;;;;;8.93;4.53;;;8.20;99.90;;;;;;5067983;28;20035;-60
2022/01/22 14:13:06;;;;;;;9.20;4.70;;;8.10;99.90;;;;;;5067922;28;20025;-59
2022/01/22 14:15:35;;;;;;;10.40;5.20;;;8.20;99.90;;;;;;5067911;28;20021;-60
2022/01/22 14:20:38;;;;;;;10.35;5.15;;;8.10;99.90;;;;;;5068017;28;20033;-60
2022/01/22 14:23:05;;;;;;;9.50;5.05;;;8.20;99.90;;;;;;5049688;28;20541;-60
2022/01/22 14:26:08;;;;;;;8.35;4.78;;;8.10;99.90;;;;;;5067824;28;20075;-60
2022/01/22 14:29:14;;;;;;;;;;;;;;;;;;;;;
2022/01/22 14:31:41;;;;;;;8.85;5.28;;;8.10;99.90;;;;;;5052080;28;20020;-59
2022/01/22 14:34:31;;;;;;;12.40;6.10;;;8.10;99.90;;;;;;5068711;28;20024;-60
2022/01/22 14:36:57;;;;;;;10.15;6.00;;;8.10;99.90;;;;;;5055895;28;20151;-60
2022/01/22 14:45:12;;;;;;;17.42;9.25;;;8.10;99.90;;;;;;5065373;28;20534;-60
2022/01/22 14:47:38;;;;;;;14.77;10.35;;;8.00;99.90;;;;;;5052386;28;20051;-60
2022/01/22 14:50:07;;;;;;;14.07;9.43;;;8.00;99.90;;;;;;5050608;28;20461;-60
2022/01/22 14:52:32;;;;;;;17.65;10.20;;;8.00;99.90;;;;;;5059995;28;20085;-60
2022/01/22 14:55:03;;;;;;;14.80;10.45;;;8.00;99.90;;;;;;5050574;28;20020;-60
2022/01/22 14:57:34;;;;;;;17.73;10.07;;;8.00;99.90;;;;;;5068729;28;20166;-60
2022/01/22 15:00:06;;;;;;;15.93;10.60;;;8.00;99.90;;;;;;5068293;28;20024;-60
2022/01/22 15:02:31;;;;;;;17.58;12.30;;;8.00;99.90;;;;;;5068606;28;20465;-60
2022/01/22 15:04:57;;;;;;;14.68;11.98;;;8.00;99.90;;;;;;5068654;28;20033;-59
2022/01/22 15:07:25;;;;;;;19.48;13.25;;;8.00;99.90;;;;;;5050226;28;20024;-60
2022/01/22 15:09:50;;;;;;;18.70;14.93;;;7.90;99.90;;;;;;5051414;28;20460;-60
2022/01/22 15:12:17;;;;;;;23.75;15.43;;;7.90;99.90;;;;;;5068852;28;20029;-60
2022/01/22 15:14:46;;;;;;;21.73;16.20;;;7.90;99.90;;;;;;5070099;28;20024;-60
2022/01/22 15:19:43;;;;;;;22.58;17.15;;;7.90;99.90;;;;;;5072056;28;20029;-60
2022/01/22 15:22:10;;;;;;;22.15;16.48;;;7.90;99.90;;;;;;5056781;28;20016;-60
2022/01/22 15:24:41;;;;;;;27.63;17.58;;;7.90;99.90;;;;;;5051995;28;20047;-60
2022/01/22 15:27:08;;;;;;;27.98;19.15;;;7.90;99.90;;;;;;5053080;28;20017;-60